Time;durP1;ratioP1;P1;durP2;ratioP2;P2;SDS_P1;SDS_P2;PMS_P1;PMS_P2;Temp;Humidity;BMP_temperature;BMP_pressure;BME280_temperature;BME280_humidity;BME280_pressure;Samples;Min_cycle;Max_cycle;Signal;HPM_P1;HPM_P2
2021/12/25 00:01:12;;;;;;;;;;;;;;;21.98;21.09;97296.44;4880172;29;1052;-73
2021/12/25 00:03:38;;;;;;;;;;;;;;;22.02;21.34;97300.72;4880237;29;1109;-73
2021/12/25 00:06:03;;;;;;;;;;;;;;;22.00;21.07;97299.59;4930083;29;1076;-73
2021/12/25 00:08:29;;;;;;;;;;;;;;;22.72;20.45;97298.28;4936838;29;1009;-73
2021/12/25 00:10:57;;;;;;;;;;;;;;;22.92;20.24;97294.25;4936902;29;1133;-73
2021/12/25 00:13:22;;;;;;;;;;;;;;;22.18;20.91;97293.25;4936680;29;1008;-73
2021/12/25 00:15:48;;;;;;;;;;;;;;;22.15;21.16;97294.97;4936550;29;1009;-73
2021/12/25 00:18:14;;;;;;;;;;;;;;;21.89;21.48;97285.06;4880030;29;1915;-74
2021/12/25 00:20:39;;;;;;;;;;;;;;;22.70;20.52;97289.47;4893351;29;979;-73
2021/12/25 00:23:06;;;;;;;;;;;;;;;22.87;20.16;97296.44;4898695;29;1383;-73
2021/12/25 00:25:35;;;;;;;;;;;;;;;21.94;21.39;97295.78;4867963;29;1117;-73
2021/12/25 00:36:09;;;;;;;;;;;;;;;22.31;20.59;97289.03;4879878;29;1898;-73
2021/12/25 00:38:36;;;;;;;;;;;;;;;21.82;21.43;97295.41;4880106;29;955;-73
2021/12/25 00:41:02;;;;;;;;;;;;;;;21.27;22.04;97295.03;4842513;29;1006;-73
2021/12/25 00:43:28;;;;;;;;;;;;;;;22.31;21.06;97293.94;4824586;29;1167;-73
2021/12/25 00:45:53;;;;;;;;;;;;;;;22.77;20.26;97289.16;4824378;29;990;-73
2021/12/25 00:48:19;;;;;;;;;;;;;;;22.19;21.20;97294.84;4824105;29;1218;-73
2021/12/25 00:50:44;;;;;;;;;;;;;;;21.72;21.42;97295.84;4824397;29;989;-72
2021/12/25 00:53:10;;;;;;;;;;;;;;;21.61;21.93;97310.41;4824573;29;1130;-73
2021/12/25 00:55:35;;;;;;;;;;;;;;;22.83;20.47;97304.28;4809249;29;1050;-73
2021/12/25 00:58:01;;;;;;;;;;;;;;;22.86;20.01;97303.38;4842678;29;1908;-73
2021/12/25 01:00:26;;;;;;;;;;;;;;;22.07;21.00;97290.81;4842774;29;1016;-73
2021/12/25 01:02:52;;;;;;;;;;;;;;;22.05;21.42;97284.81;4810586;29;1287;-73
2021/12/25 01:05:17;;;;;;;;;;;;;;;21.89;21.61;97293.56;4788207;30;1212;-73
2021/12/25 01:07:43;;;;;;;;;;;;;;;22.07;21.34;97299.31;4807537;29;1597;-73
2021/12/25 01:10:16;;;;;;;;;;;;;;;22.02;21.42;97302.75;4877137;29;1305;-73
2021/12/25 01:13:23;;;;;;;;;;;;;;;22.15;20.99;97294.97;4844888;29;1075;-73
2021/12/25 01:38:19;;;;;;;;;;;;;;;21.93;21.52;97297.06;4806061;29;1911;-73
2021/12/25 01:41:30;;;;;;;;;;;;;;;22.96;20.37;97292.06;4807225;29;1083;-73
2021/12/25 01:50:01;;;;;;;;;;;;;;;22.01;21.43;97301.16;4799001;29;1045;-73
2021/12/25 01:52:30;;;;;;;;;;;;;;;23.24;19.98;97292.84;4809159;29;1059;-73
2021/12/25 01:54:58;;;;;;;;;;;;;;;22.55;20.61;97297.00;4791478;29;2073;-73
2021/12/25 01:57:24;;;;;;;;;;;;;;;22.02;21.29;97295.06;4790729;30;1971;-73
2021/12/25 01:59:49;;;;;;;;;;;;;;;21.84;21.51;97286.44;4790391;30;1195;-73
2021/12/25 02:02:15;;;;;;;;;;;;;;;22.31;21.14;97294.72;4772830;30;1246;-73
2021/12/25 02:04:41;;;;;;;;;;;;;;;23.04;19.98;97296.16;4772802;30;1163;-73
2021/12/25 02:07:06;;;;;;;;;;;;;;;22.41;20.91;97291.91;4737197;30;1163;-73
2021/12/25 02:09:31;;;;;;;;;;;;;;;21.87;21.51;97293.25;4705129;30;1347;-73
2021/12/25 02:11:57;;;;;;;;;;;;;;;22.10;21.54;97298.38;4731246;30;1115;-74
2021/12/25 02:14:23;;;;;;;;;;;;;;;23.06;20.03;97305.00;4743760;30;1193;-73
2021/12/25 02:16:59;;;;;;;;;;;;;;;22.07;21.31;97294.44;4772346;30;1987;-73
2021/12/25 02:19:41;;;;;;;;;;;;;;;22.01;21.38;97295.50;4772434;30;1814;-73
2021/12/25 02:22:08;;;;;;;;;;;;;;;22.19;21.20;97292.78;4789029;29;1438;-73
2021/12/25 02:24:38;;;;;;;;;;;;;;;23.00;20.42;97301.19;4814016;29;1646;-73
2021/12/25 02:27:04;;;;;;;;;;;;;;;22.32;21.07;97304.78;4826032;29;1133;-73
2021/12/25 02:29:30;;;;;;;;;;;;;;;22.11;21.34;97302.81;4826455;29;1261;-73
2021/12/25 02:31:56;;;;;;;;;;;;;;;22.21;21.37;97310.09;4826085;29;1213;-73
2021/12/25 02:34:22;;;;;;;;;;;;;;;22.27;21.03;97308.22;4838381;29;1222;-73
2021/12/25 02:36:47;;;;;;;;;;;;;;;21.73;21.84;97303.84;4826072;29;1973;-73
2021/12/25 02:39:13;;;;;;;;;;;;;;;21.92;21.58;97307.59;4862045;29;1376;-73
2021/12/25 02:41:38;;;;;;;;;;;;;;;22.02;21.54;97314.06;4862872;29;997;-73
2021/12/25 02:44:04;;;;;;;;;;;;;;;21.61;21.67;97304.75;4844565;29;1177;-73
2021/12/25 02:46:38;;;;;;;;;;;;;;;21.30;22.41;97299.81;4807269;29;1378;-73
2021/12/25 02:49:08;;;;;;;;;;;;;;;22.04;21.51;97308.75;4807689;29;1276;-73
2021/12/25 02:51:33;;;;;;;;;;;;;;;22.22;21.36;97310.88;4789634;29;1363;-73
2021/12/25 02:53:58;;;;;;;;;;;;;;;21.58;21.82;97302.81;4774545;30;1136;-74
2021/12/25 02:56:24;;;;;;;;;;;;;;;21.96;21.52;97304.59;4786533;30;1908;-73
2021/12/25 02:58:50;;;;;;;;;;;;;;;21.98;21.61;97319.09;4757126;30;1113;-73
2021/12/25 03:01:16;;;;;;;;;;;;;;;22.12;21.42;97312.88;4771224;30;1166;-73
2021/12/25 03:03:42;;;;;;;;;;;;;;;21.87;21.61;97313.84;4804102;29;1275;-73
2021/12/25 03:06:08;;;;;;;;;;;;;;;21.55;22.30;97303.72;4753759;30;1240;-73
2021/12/25 03:08:33;;;;;;;;;;;;;;;21.85;21.91;97302.97;4771499;30;1474;-73
2021/12/25 03:11:00;;;;;;;;;;;;;;;22.00;21.28;97300.38;4756477;30;1334;-72
2021/12/25 03:16:12;;;;;;;;;;;;;;;21.74;21.96;97305.44;4753205;30;1975;-73
2021/12/25 03:18:43;;;;;;;;;;;;;;;21.97;21.68;97311.88;4754307;30;1335;-73
2021/12/25 03:21:08;;;;;;;;;;;;;;;21.69;22.12;97317.34;4771315;30;1133;-73
2021/12/25 03:23:35;;;;;;;;;;;;;;;21.79;21.83;97319.00;4767496;30;1245;-73
2021/12/25 03:26:02;;;;;;;;;;;;;;;21.86;21.67;97320.75;4762864;30;1355;-73
2021/12/25 03:28:30;;;;;;;;;;;;;;;21.37;22.25;97327.03;4696241;30;1293;-73
2021/12/25 03:30:59;;;;;;;;;;;;;;;21.82;22.00;97328.63;4718920;30;1344;-73
2021/12/25 03:33:25;;;;;;;;;;;;;;;22.36;21.25;97339.44;4717842;30;1142;-73
2021/12/25 03:35:51;;;;;;;;;;;;;;;23.03;20.39;97328.63;4703096;30;1158;-73
2021/12/25 03:38:19;;;;;;;;;;;;;;;22.28;21.07;97332.50;4718190;30;1911;-74
2021/12/25 03:40:45;;;;;;;;;;;;;;;21.79;21.73;97338.81;4678575;30;1362;-73
2021/12/25 03:43:10;;;;;;;;;;;;;;;21.93;21.57;97323.34;4671351;30;928;-73
2021/12/25 03:45:39;;;;;;;;;;;;;;;22.35;21.18;97325.75;4683662;30;1462;-73
2021/12/25 03:48:43;;;;;;;;;;;;;;;22.83;20.55;97338.34;4712132;30;1289;-73
2021/12/25 03:59:00;;;;;;;;;;;;;;;22.96;20.53;97352.44;4753132;30;1513;-73
2021/12/25 04:04:17;;;;;;;;;;;;;;;22.02;21.46;97348.88;4770917;30;958;-73
2021/12/25 04:09:29;;;;;;;;;;;;;;;22.72;20.81;97360.69;4768654;30;1481;-73
2021/12/25 04:11:55;;;;;;;;;;;;;;;22.68;20.72;97371.38;4736825;30;1293;-73
2021/12/25 04:14:21;;;;;;;;;;;;;;;22.13;21.38;97365.50;4736564;30;1531;-74
2021/12/25 04:16:47;;;;;;;;;;;;;;;21.66;22.03;97368.44;4734899;30;1904;-73
2021/12/25 04:19:13;;;;;;;;;;;;;;;22.11;21.55;97373.66;4735302;30;1089;-73
2021/12/25 04:21:47;;;;;;;;;;;;;;;22.85;20.43;97375.53;4749218;30;1179;-73
2021/12/25 04:24:13;;;;;;;;;;;;;;;22.68;20.46;97391.22;4788364;29;1160;-73
2021/12/25 04:26:43;;;;;;;;;;;;;;;21.64;21.88;97383.06;4784124;30;1312;-73
2021/12/25 04:32:10;;;;;;;;;;;;;;;22.85;20.75;97389.72;4788575;30;1748;-73
2021/12/25 05:01:54;;;;;;;;;;;;;;;22.56;20.99;97397.81;4773763;30;1124;-73
2021/12/25 05:04:45;;;;;;;;;;;;;;;22.55;21.03;97410.41;4773845;30;1330;-73
2021/12/25 05:07:19;;;;;;;;;;;;;;;21.92;21.80;97406.72;4785430;29;1233;-73
2021/12/25 05:09:45;;;;;;;;;;;;;;;21.90;21.84;97414.09;4756498;30;1327;-73
2021/12/25 05:12:10;;;;;;;;;;;;;;;21.90;21.68;97414.09;4739459;30;1041;-73
2021/12/25 05:14:36;;;;;;;;;;;;;;;23.00;20.42;97414.69;4752556;30;1082;-74
2021/12/25 05:17:02;;;;;;;;;;;;;;;22.25;21.20;97421.28;4755486;30;1995;-73
2021/12/25 05:19:28;;;;;;;;;;;;;;;22.15;21.60;97422.47;4755734;30;1210;-73
2021/12/25 05:21:54;;;;;;;;;;;;;;;21.58;22.03;97418.88;4770322;30;1125;-73
2021/12/25 05:24:21;;;;;;;;;;;;;;;22.57;20.90;97427.75;4783299;30;1137;-74
2021/12/25 05:26:56;;;;;;;;;;;;;;;23.00;20.45;97423.19;4791037;29;1101;-73
2021/12/25 05:29:24;;;;;;;;;;;;;;;22.05;21.50;97423.63;4773132;30;1368;-74
2021/12/25 05:31:50;;;;;;;;;;;;;;;21.94;21.64;97426.09;4773081;30;1263;-74
2021/12/25 05:34:20;;;;;;;;;;;;;;;21.69;22.15;97427.78;4773165;30;984;-74
2021/12/25 05:37:15;;;;;;;;;;;;;;;22.77;20.64;97428.13;4772981;30;1975;-74
2021/12/25 05:40:01;;;;;;;;;;;;;;;22.28;21.08;97428.88;4737591;30;968;-74
2021/12/25 05:42:30;;;;;;;;;;;;;;;21.82;21.93;97439.84;4727122;30;1142;-74
2021/12/25 05:44:55;;;;;;;;;;;;;;;21.70;21.98;97446.34;4755490;30;1249;-74
2021/12/25 05:47:24;;;;;;;;;;;;;;;22.24;21.24;97439.53;4737642;30;904;-74
2021/12/25 05:49:53;;;;;;;;;;;;;;;22.98;20.38;97442.75;4745765;30;1684;-74
2021/12/25 05:52:41;;;;;;;;;;;;;;;22.17;21.22;97451.13;4786365;30;986;-74
2021/12/25 05:55:38;;;;;;;;;;;;;;;21.79;22.09;97463.41;4790336;29;903;-74
2021/12/25 05:58:23;;;;;;;;;;;;;;;21.97;21.97;97459.16;4787600;30;1911;-74
2021/12/25 06:01:05;;;;;;;;;;;;;;;22.81;20.61;97457.16;4786852;30;1231;-74
2021/12/25 06:03:30;;;;;;;;;;;;;;;22.74;20.58;97465.97;4786033;30;993;-74
2021/12/25 06:05:57;;;;;;;;;;;;;;;22.04;21.68;97458.91;4790329;29;953;-75
2021/12/25 06:08:23;;;;;;;;;;;;;;;21.98;21.83;97467.19;4757444;30;1227;-74
2021/12/25 06:10:49;;;;;;;;;;;;;;;21.87;22.06;97457.50;4772272;30;988;-74
2021/12/25 06:13:18;;;;;;;;;;;;;;;22.46;21.08;97456.50;4763293;30;1042;-74
2021/12/25 06:15:44;;;;;;;;;;;;;;;22.71;21.04;97463.25;4790572;30;1133;-74
2021/12/25 06:18:28;;;;;;;;;;;;;;;21.94;21.85;97460.06;4772460;30;1908;-73
2021/12/25 06:20:59;;;;;;;;;;;;;;;21.97;21.71;97462.00;4785402;29;1325;-74
2021/12/25 06:23:34;;;;;;;;;;;;;;;21.78;21.88;97461.84;4754198;30;1474;-74
2021/12/25 06:26:18;;;;;;;;;;;;;;;21.89;22.06;97466.34;4772299;30;901;-74
2021/12/25 06:29:04;;;;;;;;;;;;;;;22.59;21.07;97459.28;4772253;30;1050;-74
2021/12/25 06:31:48;;;;;;;;;;;;;;;22.87;20.53;97466.63;4772843;30;960;-74
2021/12/25 06:34:40;;;;;;;;;;;;;;;22.15;21.57;97476.31;4790470;29;1201;-74
2021/12/25 06:37:18;;;;;;;;;;;;;;;21.78;22.01;97475.22;4819106;29;1972;-73
2021/12/25 06:40:11;;;;;;;;;;;;;;;22.06;21.88;97470.53;4807600;29;937;-74
2021/12/25 06:42:39;;;;;;;;;;;;;;;22.75;20.90;97472.44;4778199;29;1222;-74
2021/12/25 06:45:05;;;;;;;;;;;;;;;22.76;20.84;97483.28;4808296;29;1102;-74
2021/12/25 06:47:31;;;;;;;;;;;;;;;22.23;21.35;97491.81;4778606;29;1310;-74
2021/12/25 06:49:59;;;;;;;;;;;;;;;21.49;22.28;97484.69;4786714;29;1424;-74
2021/12/25 06:52:45;;;;;;;;;;;;;;;21.67;22.14;97481.25;4771774;30;1054;-74
2021/12/25 06:55:37;;;;;;;;;;;;;;;21.55;22.44;97496.22;4755518;30;1276;-73
2021/12/25 06:58:17;;;;;;;;;;;;;;;21.64;22.37;97487.03;4768867;30;1916;-74
2021/12/25 07:00:42;;;;;;;;;;;;;;;21.24;22.77;97488.34;4789411;30;1139;-74
2021/12/25 07:03:09;;;;;;;;;;;;;;;22.09;21.71;97478.91;4771617;30;1228;-74
2021/12/25 07:05:53;;;;;;;;;;;;;;;21.90;21.90;97490.56;4758552;30;1062;-73
2021/12/25 07:08:48;;;;;;;;;;;;;;;21.94;21.82;97491.22;4718828;30;1079;-73
2021/12/25 07:11:22;;;;;;;;;;;;;;;21.45;22.58;97498.19;4722756;30;1252;-73
2021/12/25 07:14:04;;;;;;;;;;;;;;;21.81;22.06;97492.09;4750734;30;1354;-73
2021/12/25 07:16:38;;;;;;;;;;;;;;;22.04;21.66;97498.56;4777324;30;1911;-73
2021/12/25 07:19:07;;;;;;;;;;;;;;;21.89;22.04;97497.47;4781152;29;917;-74
2021/12/25 07:21:58;;;;;;;;;;;;;;;22.73;20.84;97498.38;4753674;30;1011;-74
2021/12/25 07:24:42;;;;;;;;;;;;;;;22.42;21.10;97500.41;4753581;30;1029;-73
2021/12/25 07:27:26;;;;;;;;;;;;;;;21.90;21.69;97505.50;4753375;30;992;-74
2021/12/25 07:29:54;;;;;;;;;;;;;;;21.99;21.90;97514.09;4788822;30;906;-73
2021/12/25 07:32:19;;;;;;;;;;;;;;;21.71;22.21;97509.44;4805001;29;976;-73
2021/12/25 07:34:46;;;;;;;;;;;;;;;22.47;21.16;97517.63;4811461;29;919;-74
2021/12/25 07:37:13;;;;;;;;;;;;;;;22.44;21.06;97517.78;4807374;29;1896;-73
2021/12/25 07:39:38;;;;;;;;;;;;;;;22.01;21.66;97517.25;4789006;29;1025;-74
2021/12/25 07:42:04;;;;;;;;;;;;;;;21.86;22.01;97513.34;4789011;29;1022;-74
2021/12/25 07:44:55;;;;;;;;;;;;;;;22.17;21.66;97524.81;4818009;29;973;-74
2021/12/25 07:47:22;;;;;;;;;;;;;;;22.93;20.83;97517.91;4843331;29;790;-73
2021/12/25 07:49:48;;;;;;;;;;;;;;;22.85;20.92;97530.78;4853231;29;1159;-74
2021/12/25 07:52:13;;;;;;;;;;;;;;;22.62;20.98;97534.88;4843446;29;1078;-73
2021/12/25 07:54:39;;;;;;;;;;;;;;;22.14;21.67;97537.06;4872965;29;1189;-73
2021/12/25 07:57:04;;;;;;;;;;;;;;;21.98;21.74;97540.06;4880279;29;1974;-73
2021/12/25 07:59:31;;;;;;;;;;;;;;;21.87;21.92;97546.09;4910458;29;939;-74
2021/12/25 08:01:56;;;;;;;;;;;;;;;21.35;22.63;97543.81;4935146;29;1003;-74
2021/12/25 08:04:22;;;;;;;;;;;;;;;21.71;22.58;97544.22;4936687;29;863;-74
2021/12/25 08:06:47;;;;;;;;;;;;;;;22.54;21.15;97553.44;4936589;29;760;-74
2021/12/25 08:09:13;;;;;;;;;;;;;;;22.55;21.09;97552.19;4936949;29;767;-74
2021/12/25 08:11:38;;;;;;;;;;;;;;;21.83;21.88;97557.53;4974169;28;949;-74
2021/12/25 08:14:04;;;;;;;;;;;;;;;21.78;22.34;97560.97;4977630;28;809;-74
2021/12/25 08:16:29;;;;;;;;;;;;;;;21.68;22.07;97553.63;4977212;28;1902;-73
2021/12/25 08:18:55;;;;;;;;;;;;;;;21.37;22.71;97564.75;4977558;28;806;-74
2021/12/25 08:21:38;;;;;;;;;;;;;;;21.78;22.02;97566.63;4961628;28;967;-73
2021/12/25 08:24:36;;;;;;;;;;;;;;;21.89;22.17;97554.13;4917142;29;1321;-73
2021/12/25 08:27:20;;;;;;;;;;;;;;;22.34;21.49;97560.22;4917448;29;1093;-73
2021/12/25 08:30:15;;;;;;;;;;;;;;;22.99;20.57;97569.16;4917713;29;1012;-73
2021/12/25 08:32:59;;;;;;;;;;;;;;;22.09;21.88;97563.13;4904054;29;741;-74
2021/12/25 08:35:57;;;;;;;;;;;;;;;21.78;22.21;97560.97;4861239;29;903;-74
2021/12/25 08:38:22;;;;;;;;;;;;;;;21.70;22.52;97565.28;4861710;29;1915;-74
2021/12/25 08:40:48;;;;;;;;;;;;;;;22.88;20.94;97566.75;4861496;29;1066;-73
2021/12/25 08:43:16;;;;;;;;;;;;;;;22.57;21.19;97564.63;4861225;29;753;-74
2021/12/25 08:45:44;;;;;;;;;;;;;;;21.97;21.75;97552.66;4861230;29;908;-73
2021/12/25 08:48:14;;;;;;;;;;;;;;;21.92;21.85;97558.91;4861316;29;1131;-74
2021/12/25 08:50:40;;;;;;;;;;;;;;;22.21;21.87;97547.34;4861348;29;767;-73
2021/12/25 08:53:05;;;;;;;;;;;;;;;22.82;20.83;97540.19;4845856;29;1173;-74
2021/12/25 08:55:31;;;;;;;;;;;;;;;22.36;21.31;97543.53;4861357;29;746;-73
2021/12/25 08:57:56;;;;;;;;;;;;;;;22.00;22.05;97531.88;4845431;29;1988;-74
2021/12/25 09:00:22;;;;;;;;;;;;;;;21.95;21.85;97529.63;4861417;29;1067;-74
2021/12/25 09:02:47;;;;;;;;;;;;;;;22.08;21.92;97528.34;4830678;29;911;-73
2021/12/25 09:05:13;;;;;;;;;;;;;;;22.94;20.95;97530.03;4860956;29;1020;-74
2021/12/25 09:07:38;;;;;;;;;;;;;;;22.90;20.92;97518.03;4895409;29;852;-73
2021/12/25 09:10:04;;;;;;;;;;;;;;;22.38;21.34;97528.09;4898355;29;824;-74
2021/12/25 09:12:32;;;;;;;;;;;;;;;22.13;21.71;97518.50;4968777;28;1028;-74
2021/12/25 09:14:57;;;;;;;;;;;;;;;22.05;22.03;97522.78;4935991;29;895;-73
2021/12/25 09:17:23;;;;;;;;;;;;;;;22.44;21.56;97514.94;4898142;29;1907;-73
2021/12/25 09:19:48;;;;;;;;;;;;;;;23.00;20.70;97505.47;4897943;29;877;-73
2021/12/25 09:22:14;;;;;;;;;;;;;;;22.36;21.47;97517.22;4916975;29;764;-73
2021/12/25 09:24:39;;;;;;;;;;;;;;;21.93;22.16;97509.50;4917226;29;1236;-73
2021/12/25 09:27:05;;;;;;;;;;;;;;;21.80;22.36;97507.47;4916833;29;1015;-74
2021/12/25 09:29:31;;;;;;;;;;;;;;;22.08;21.73;97510.56;4916920;29;963;-74
2021/12/25 09:31:56;;;;;;;;;;;;;;;22.02;21.89;97507.53;4918926;29;923;-74
2021/12/25 09:34:22;;;;;;;;;;;;;;;21.92;22.24;97496.59;4901241;29;995;-74
2021/12/25 09:36:47;;;;;;;;;;;;;;;21.85;22.28;97498.38;4918230;29;1911;-74
2021/12/25 09:39:13;;;;;;;;;;;;;;;22.81;20.89;97493.25;4920506;29;784;-74
2021/12/25 09:41:38;;;;;;;;;;;;;;;22.50;21.44;97493.25;4920132;29;807;-74
2021/12/25 09:44:04;;;;;;;;;;;;;;;21.90;22.18;97493.41;4920502;29;843;-74
2021/12/25 09:46:29;;;;;;;;;;;;;;;21.82;22.22;97484.38;4961780;28;791;-73
2021/12/25 09:48:55;;;;;;;;;;;;;;;21.57;22.67;97497.38;4979340;28;761;-73
2021/12/25 09:51:21;;;;;;;;;;;;;;;22.82;21.12;97489.94;4979677;28;714;-74
2021/12/25 09:53:56;;;;;;;;;;;;;;;22.44;21.24;97497.94;4978499;28;815;-74
2021/12/25 09:56:22;;;;;;;;;;;;;;;21.53;22.09;97439.28;4978457;28;1898;-73
2021/12/25 09:58:47;;;;;;;;;;;;;;;21.65;22.50;97478.06;4980204;28;788;-74
2021/12/25 10:01:13;;;;;;;;;;;;;;;21.97;22.21;97481.81;4979477;28;771;-74
2021/12/25 10:03:45;;;;;;;;;;;;;;;22.66;21.34;97470.31;4979662;28;768;-73
2021/12/25 10:06:26;;;;;;;;;;;;;;;22.77;21.03;97464.22;4979499;28;747;-74
2021/12/25 10:08:52;;;;;;;;;;;;;;;21.78;22.17;97458.22;4979170;28;881;-74
2021/12/25 10:11:17;;;;;;;;;;;;;;;21.99;21.91;97451.00;4979427;28;870;-74
2021/12/25 10:13:43;;;;;;;;;;;;;;;21.70;22.46;97452.00;4979583;28;779;-73
2021/12/25 10:16:25;;;;;;;;;;;;;;;22.50;21.68;97453.53;5006845;28;1462;-74
2021/12/25 10:18:51;;;;;;;;;;;;;;;22.83;21.12;97451.78;4998814;28;795;-73
2021/12/25 10:21:27;;;;;;;;;;;;;;;22.38;21.66;97448.72;4998748;28;776;-73
2021/12/25 10:24:05;;;;;;;;;;;;;;;21.79;22.35;97442.81;4998566;28;1042;-73
2021/12/25 10:26:31;;;;;;;;;;;;;;;21.84;22.40;97440.16;4998897;28;862;-73
2021/12/25 10:28:57;;;;;;;;;;;;;;;22.80;21.23;97441.41;4998275;28;819;-74
2021/12/25 10:31:33;;;;;;;;;;;;;;;22.61;21.26;97431.22;4996218;28;983;-74
2021/12/25 10:33:58;;;;;;;;;;;;;;;21.94;22.23;97431.75;4996410;28;880;-74
2021/12/25 10:36:24;;;;;;;;;;;;;;;21.61;22.56;97432.13;4995627;28;1981;-73
2021/12/25 10:39:08;;;;;;;;;;;;;;;21.64;22.81;97419.88;4996224;28;897;-73
2021/12/25 10:41:36;;;;;;;;;;;;;;;22.64;21.36;97418.97;4995596;28;1085;-73
2021/12/25 10:44:24;;;;;;;;;;;;;;;22.38;21.66;97414.72;4994577;28;983;-73
2021/12/25 10:46:50;;;;;;;;;;;;;;;22.00;22.04;97418.56;4940849;29;1048;-74
2021/12/25 10:49:16;;;;;;;;;;;;;;;21.96;21.98;97412.25;4956845;29;1085;-74
2021/12/25 10:51:41;;;;;;;;;;;;;;;22.38;21.61;97414.72;4957204;29;1013;-73
2021/12/25 10:54:12;;;;;;;;;;;;;;;22.95;21.04;97406.78;4956807;29;828;-74
2021/12/25 10:56:38;;;;;;;;;;;;;;;22.43;21.46;97406.41;4956955;29;1899;-73
2021/12/25 10:59:07;;;;;;;;;;;;;;;21.93;22.29;97413.19;4956794;29;964;-74
2021/12/25 11:01:39;;;;;;;;;;;;;;;21.86;22.40;97414.22;4953750;29;808;-73
2021/12/25 11:04:06;;;;;;;;;;;;;;;20.99;23.54;97423.31;4937644;29;1014;-73
2021/12/25 11:06:32;;;;;;;;;;;;;;;21.59;22.80;97407.09;4937627;29;1014;-73
2021/12/25 11:08:58;;;;;;;;;;;;;;;22.00;22.05;97408.03;4934379;29;894;-73
2021/12/25 11:11:23;;;;;;;;;;;;;;;21.62;22.74;97405.41;4880992;29;1018;-73
2021/12/25 11:13:50;;;;;;;;;;;;;;;22.35;21.72;97408.75;4881049;29;919;-74
2021/12/25 11:16:28;;;;;;;;;;;;;;;22.66;21.29;97410.78;4881211;29;987;-73
2021/12/25 11:19:08;;;;;;;;;;;;;;;22.03;22.22;97414.81;4881154;29;813;-74
2021/12/25 11:21:49;;;;;;;;;;;;;;;21.46;22.84;97414.06;4880969;29;888;-73
2021/12/25 11:24:24;;;;;;;;;;;;;;;21.87;22.64;97403.69;4918402;29;1231;-74
2021/12/25 11:26:52;;;;;;;;;;;;;;;22.81;21.18;97403.25;4937591;29;875;-74
2021/12/25 11:29:18;;;;;;;;;;;;;;;22.30;21.72;97403.66;4937082;29;889;-73
2021/12/25 11:31:44;;;;;;;;;;;;;;;21.55;22.89;97394.31;4937371;29;957;-74
2021/12/25 11:34:09;;;;;;;;;;;;;;;21.81;22.52;97398.63;4937098;29;752;-74
2021/12/25 11:36:38;;;;;;;;;;;;;;;22.17;22.27;97399.34;4937065;29;1971;-73
2021/12/25 11:39:05;;;;;;;;;;;;;;;22.79;21.37;97393.63;4918400;29;1018;-74
2021/12/25 11:41:31;;;;;;;;;;;;;;;22.23;22.05;97392.63;4923722;29;847;-74
2021/12/25 11:43:57;;;;;;;;;;;;;;;21.79;22.77;97398.28;4940878;29;751;-74
2021/12/25 11:46:35;;;;;;;;;;;;;;;21.90;22.29;97403.53;4956392;29;1197;-73
2021/12/25 11:49:19;;;;;;;;;;;;;;;22.80;21.21;97401.69;4956096;29;1003;-74
2021/12/25 11:51:46;;;;;;;;;;;;;;;22.68;21.25;97405.41;4956057;29;732;-73
2021/12/25 11:59:45;;;;;;;;;;;;;;;22.40;21.72;97395.22;4918028;29;1040;-73
2021/12/25 12:02:11;;;;;;;;;;;;;;;22.54;21.48;97400.34;4898634;29;980;-74
2021/12/25 12:04:40;;;;;;;;;;;;;;;22.21;22.10;97395.13;4898494;29;912;-73
2021/12/25 12:07:08;;;;;;;;;;;;;;;22.01;22.38;97398.25;4880371;29;937;-73
2021/12/25 12:09:58;;;;;;;;;;;;;;;22.47;21.71;97401.38;4842829;29;926;-73
2021/12/25 12:12:42;;;;;;;;;;;;;;;22.59;21.34;97394.06;4843099;29;846;-73
2021/12/25 12:15:26;;;;;;;;;;;;;;;21.81;22.70;97394.97;4842953;29;948;-73
2021/12/25 12:18:31;;;;;;;;;;;;;;;21.90;22.53;97386.56;4843001;29;1952;-74
2021/12/25 12:21:10;;;;;;;;;;;;;;;22.51;21.69;97389.91;4806454;29;978;-73
2021/12/25 12:26:45;;;;;;;;;;;;;;;22.32;21.78;97395.47;4806620;29;918;-74
2021/12/25 12:29:11;;;;;;;;;;;;;;;21.83;22.51;97401.78;4806430;29;811;-74
2021/12/25 12:31:42;;;;;;;;;;;;;;;21.77;22.75;97397.97;4815064;29;907;-73
2021/12/25 12:34:26;;;;;;;;;;;;;;;22.79;21.25;97394.41;4817784;29;1255;-74
2021/12/25 12:36:52;;;;;;;;;;;;;;;21.98;22.18;97387.09;4842741;29;1986;-73
2021/12/25 12:39:18;;;;;;;;;;;;;;;21.92;22.47;97411.59;4827571;29;970;-74
2021/12/25 12:41:53;;;;;;;;;;;;;;;21.63;22.66;97394.84;4828188;29;801;-73
2021/12/25 12:44:26;;;;;;;;;;;;;;;22.54;21.78;97406.00;4827523;29;930;-74
2021/12/25 12:46:52;;;;;;;;;;;;;;;22.85;21.27;97412.44;4867986;29;993;-74
2021/12/25 12:49:21;;;;;;;;;;;;;;;22.22;21.79;97405.19;4898290;29;741;-74
2021/12/25 12:51:47;;;;;;;;;;;;;;;22.26;22.10;97407.91;4898680;29;889;-73
2021/12/25 12:54:31;;;;;;;;;;;;;;;21.30;23.34;97407.31;4882995;29;737;-73
2021/12/25 12:57:03;;;;;;;;;;;;;;;21.60;22.99;97405.03;4901721;28;1978;-74
2021/12/25 12:59:44;;;;;;;;;;;;;;;21.56;23.10;97402.38;4976705;28;830;-74
2021/12/25 13:02:10;;;;;;;;;;;;;;;21.69;23.09;97399.47;4977030;28;779;-74
2021/12/25 13:04:45;;;;;;;;;;;;;;;22.36;21.92;97413.16;4977098;28;810;-73
2021/12/25 13:07:11;;;;;;;;;;;;;;;22.81;21.19;97408.94;4979151;28;870;-73
2021/12/25 13:09:42;;;;;;;;;;;;;;;22.35;21.77;97411.56;4980561;28;1070;-74
2021/12/25 13:12:19;;;;;;;;;;;;;;;21.95;22.56;97413.50;4972650;28;736;-74
2021/12/25 13:14:45;;;;;;;;;;;;;;;21.94;22.29;97403.44;4980532;28;976;-74
2021/12/25 13:17:10;;;;;;;;;;;;;;;23.00;21.25;97409.00;4980622;28;1914;-73
2021/12/25 13:19:46;;;;;;;;;;;;;;;22.41;21.84;97416.63;4962505;28;857;-73
2021/12/25 13:22:11;;;;;;;;;;;;;;;21.77;22.76;97417.78;4962113;28;993;-73
2021/12/25 13:24:37;;;;;;;;;;;;;;;21.54;22.96;97429.53;4994558;28;1176;-74
2021/12/25 13:27:02;;;;;;;;;;;;;;;21.62;22.95;97422.38;5015116;28;786;-74
2021/12/25 13:29:28;;;;;;;;;;;;;;;22.58;21.77;97417.97;5015133;28;791;-74
2021/12/25 13:31:53;;;;;;;;;;;;;;;22.22;21.97;97422.19;4958257;29;980;-73
2021/12/25 13:34:21;;;;;;;;;;;;;;;21.90;22.85;97434.69;4958667;29;860;-73
2021/12/25 13:36:55;;;;;;;;;;;;;;;21.04;23.67;97422.75;4958358;28;1914;-74
2021/12/25 13:39:26;;;;;;;;;;;;;;;21.05;23.72;97418.69;4978063;28;775;-74
2021/12/25 13:42:05;;;;;;;;;;;;;;;22.62;22.04;97418.63;4978094;28;871;-74
2021/12/25 13:44:34;;;;;;;;;;;;;;;22.61;21.64;97420.69;4961852;28;828;-73
2021/12/25 13:47:01;;;;;;;;;;;;;;;22.12;22.07;97414.88;4977396;28;735;-73
2021/12/25 13:49:42;;;;;;;;;;;;;;;21.90;22.58;97414.88;4977648;28;987;-73
2021/12/25 13:52:21;;;;;;;;;;;;;;;21.14;23.70;97412.31;4977812;28;920;-74
2021/12/25 13:54:55;;;;;;;;;;;;;;;21.80;23.06;97411.19;4919676;29;1001;-73
2021/12/25 13:57:21;;;;;;;;;;;;;;;22.59;21.91;97408.22;4919786;29;1981;-74
2021/12/25 13:59:49;;;;;;;;;;;;;;;22.83;21.63;97406.41;4919835;29;934;-74
2021/12/25 14:02:15;;;;;;;;;;;;;;;21.93;22.42;97410.34;4886802;29;1028;-73
2021/12/25 14:04:53;;;;;;;;;;;;;;;21.85;22.81;97419.09;4900640;29;1013;-73
2021/12/25 14:07:19;;;;;;;;;;;;;;;22.11;22.64;97416.16;4900722;29;822;-73
2021/12/25 14:09:52;;;;;;;;;;;;;;;21.88;22.77;97417.38;4900486;29;980;-73
2021/12/25 14:12:19;;;;;;;;;;;;;;;22.89;21.25;97417.97;4900945;29;972;-73
2021/12/25 14:14:45;;;;;;;;;;;;;;;22.18;22.04;97423.59;4900567;29;952;-73
2021/12/25 14:17:12;;;;;;;;;;;;;;;21.71;22.95;97411.13;4900753;29;1986;-74
2021/12/25 14:19:39;;;;;;;;;;;;;;;21.68;22.87;97414.88;4900564;29;806;-74
2021/12/25 14:22:05;;;;;;;;;;;;;;;22.43;22.28;97420.56;4900483;29;962;-74
2021/12/25 14:25:00;;;;;;;;;;;;;;;23.20;21.26;97415.03;4900672;29;1049;-74
2021/12/25 14:27:25;;;;;;;;;;;;;;;22.99;21.14;97418.78;4919615;29;985;-74
2021/12/25 14:29:51;;;;;;;;;;;;;;;22.16;22.20;97421.22;4919806;29;1314;-73
2021/12/25 14:32:28;;;;;;;;;;;;;;;21.90;22.73;97420.53;4919378;29;1029;-74
2021/12/25 14:34:54;;;;;;;;;;;;;;;21.92;22.85;97423.72;4919119;29;951;-74
2021/12/25 14:37:47;;;;;;;;;;;;;;;22.66;22.04;97430.63;4919212;29;1902;-74
2021/12/25 14:40:12;;;;;;;;;;;;;;;22.91;21.16;97428.88;4894804;29;988;-74
2021/12/25 14:42:39;;;;;;;;;;;;;;;22.00;22.67;97429.91;4894809;29;1061;-74
2021/12/25 14:45:05;;;;;;;;;;;;;;;21.68;22.96;97419.75;4900100;29;890;-73
2021/12/25 14:47:30;;;;;;;;;;;;;;;21.54;23.40;97432.38;4900138;29;856;-74
2021/12/25 14:49:56;;;;;;;;;;;;;;;22.60;22.07;97438.94;4916092;29;890;-73